Time;durP1;ratioP1;P1;durP2;ratioP2;P2;SDS_P1;SDS_P2;PMS_P1;PMS_P2;Temp;Humidity;BMP_temperature;BMP_pressure;BME280_temperature;BME280_humidity;BME280_pressure;Samples;Min_cycle;Max_cycle;Signal;HPM_P1;HPM_P2
2023/06/28 00:01:00;;;;;;;9.65;6.00;;;;;;;;;;5012896;28;20050;-70
2023/06/28 00:03:25;;;;;;;13.00;6.43;;;;;;;;;;5012998;28;20564;-70
2023/06/28 00:05:51;;;;;;;9.15;5.97;;;;;;;;;;5013248;28;20038;-70
2023/06/28 00:08:16;;;;;;;16.35;6.95;;;;;;;;;;5013300;28;20080;-70
2023/06/28 00:10:41;;;;;;;11.55;6.57;;;;;;;;;;5013252;28;20033;-70
2023/06/28 00:13:07;;;;;;;11.15;7.20;;;;;;;;;;5012810;28;20041;-70
2023/06/28 00:15:32;;;;;;;13.38;7.18;;;;;;;;;;5012248;28;20044;-70
2023/06/28 00:17:57;;;;;;;14.90;7.22;;;;;;;;;;5013042;28;20057;-70
2023/06/28 00:20:23;;;;;;;13.07;7.20;;;;;;;;;;5013308;28;20034;-70
2023/06/28 00:22:49;;;;;;;13.55;7.63;;;;;;;;;;5012814;28;20029;-70
2023/06/28 00:25:14;;;;;;;14.95;7.28;;;;;;;;;;5010792;28;20053;-70
2023/06/28 00:27:40;;;;;;;16.98;7.28;;;;;;;;;;5012615;28;20041;-70
2023/06/28 00:30:06;;;;;;;12.98;8.18;;;;;;;;;;5012345;28;20029;-69
2023/06/28 00:32:31;;;;;;;18.48;8.00;;;;;;;;;;5012147;28;20046;-70
2023/06/28 00:34:57;;;;;;;14.65;8.38;;;;;;;;;;5012087;28;20089;-70
2023/06/28 00:37:22;;;;;;;13.88;8.50;;;;;;;;;;5010367;28;20033;-70
2023/06/28 00:39:47;;;;;;;15.80;8.82;;;;;;;;;;5012706;28;20076;-70
2023/06/28 00:42:14;;;;;;;12.90;8.15;;;;;;;;;;5014917;28;20034;-70
2023/06/28 00:44:39;;;;;;;16.25;8.80;;;;;;;;;;5016777;28;20042;-70
2023/06/28 00:47:06;;;;;;;18.83;8.48;;;;;;;;;;5016738;28;20037;-70
2023/06/28 00:49:34;;;;;;;16.08;8.75;;;;;;;;;;5016878;28;20038;-70
2023/06/28 00:52:00;;;;;;;15.70;7.88;;;;;;;;;;5016533;28;20061;-70
2023/06/28 00:54:25;;;;;;;16.27;8.77;;;;;;;;;;5016463;28;20038;-70
2023/06/28 00:56:51;;;;;;;13.10;8.00;;;;;;;;;;5016805;28;20466;-69
2023/06/28 00:59:17;;;;;;;14.50;8.00;;;;;;;;;;5015051;28;20054;-70
2023/06/28 01:01:43;;;;;;;12.90;7.70;;;;;;;;;;5013802;28;20072;-70
2023/06/28 01:04:09;;;;;;;12.02;7.43;;;;;;;;;;5012030;28;20034;-70
2023/06/28 01:06:36;;;;;;;18.08;7.85;;;;;;;;;;5016315;28;20521;-70
2023/06/28 01:09:04;;;;;;;17.83;8.13;;;;;;;;;;5016213;28;20046;-70
2023/06/28 01:11:30;;;;;;;12.57;7.53;;;;;;;;;;5013348;28;20038;-70
2023/06/28 01:13:56;;;;;;;13.43;7.10;;;;;;;;;;5015122;28;20080;-70
2023/06/28 01:16:21;;;;;;;14.52;7.18;;;;;;;;;;5016436;28;20035;-70
2023/06/28 01:18:47;;;;;;;16.92;7.88;;;;;;;;;;5014885;28;20113;-70
2023/06/28 01:21:14;;;;;;;16.42;7.85;;;;;;;;;;5014743;28;20030;-70
2023/06/28 01:23:40;;;;;;;19.17;8.68;;;;;;;;;;5014137;28;20056;-70
2023/06/28 01:26:07;;;;;;;17.98;8.52;;;;;;;;;;5012726;28;20478;-70
2023/06/28 01:28:33;;;;;;;13.73;7.90;;;;;;;;;;5014356;28;20034;-70
2023/06/28 01:30:59;;;;;;;16.42;8.02;;;;;;;;;;5015803;28;20045;-70
2023/06/28 01:33:25;;;;;;;22.35;8.95;;;;;;;;;;5015380;28;20409;-70
2023/06/28 01:35:51;;;;;;;19.48;7.75;;;;;;;;;;5015337;28;20474;-70
2023/06/28 01:38:16;;;;;;;19.08;8.52;;;;;;;;;;5015684;28;20038;-70
2023/06/28 01:40:43;;;;;;;18.85;8.63;;;;;;;;;;5014845;28;20125;-70
2023/06/28 01:43:08;;;;;;;19.38;8.43;;;;;;;;;;5015435;28;20053;-70
2023/06/28 01:45:34;;;;;;;19.58;9.10;;;;;;;;;;5014776;28;20100;-70
2023/06/28 01:48:00;;;;;;;17.95;8.00;;;;;;;;;;5015796;28;20065;-70
2023/06/28 01:50:27;;;;;;;19.25;8.35;;;;;;;;;;5015744;28;20041;-70
2023/06/28 01:52:52;;;;;;;19.00;8.23;;;;;;;;;;5013479;28;20164;-70
2023/06/28 01:55:18;;;;;;;17.27;8.68;;;;;;;;;;5014443;28;20544;-70
2023/06/28 01:57:45;;;;;;;20.73;8.45;;;;;;;;;;5015287;28;20072;-70
2023/06/28 02:00:11;;;;;;;16.70;8.20;;;;;;;;;;5014847;28;20042;-69
2023/06/28 02:02:36;;;;;;;16.98;8.85;;;;;;;;;;5011942;28;20108;-70
2023/06/28 02:05:02;;;;;;;17.50;8.32;;;;;;;;;;5012267;28;20458;-70
2023/06/28 02:07:27;;;;;;;15.35;7.90;;;;;;;;;;5014928;28;20449;-70
2023/06/28 02:09:52;;;;;;;18.67;7.90;;;;;;;;;;5015324;28;20066;-70
2023/06/28 02:12:18;;;;;;;20.35;9.38;;;;;;;;;;5012034;28;20042;-70
2023/06/28 02:14:43;;;;;;;17.92;8.35;;;;;;;;;;5015406;28;20034;-70
2023/06/28 02:17:13;;;;;;;14.93;8.27;;;;;;;;;;5014678;28;20148;-70
2023/06/28 02:19:40;;;;;;;16.17;8.05;;;;;;;;;;5015072;28;20164;-70
2023/06/28 02:22:05;;;;;;;21.20;8.10;;;;;;;;;;5013437;28;20040;-70
2023/06/28 02:24:31;;;;;;;12.50;7.82;;;;;;;;;;5014993;28;20034;-70
2023/06/28 02:26:56;;;;;;;21.02;7.72;;;;;;;;;;5014867;28;20113;-70
2023/06/28 02:29:21;;;;;;;15.68;7.40;;;;;;;;;;5015103;28;20073;-70
2023/06/28 02:31:47;;;;;;;16.73;7.40;;;;;;;;;;5011050;28;20058;-70
2023/06/28 02:34:12;;;;;;;16.77;7.65;;;;;;;;;;5014933;28;20038;-70
2023/06/28 02:36:37;;;;;;;17.00;7.30;;;;;;;;;;5011837;28;20041;-70
2023/06/28 02:39:03;;;;;;;14.32;7.75;;;;;;;;;;5014630;28;20042;-70
2023/06/28 02:41:28;;;;;;;16.90;8.43;;;;;;;;;;5014657;28;20091;-69
2023/06/28 02:43:53;;;;;;;18.73;8.55;;;;;;;;;;5014431;28;20087;-70
2023/06/28 02:46:19;;;;;;;15.63;7.60;;;;;;;;;;5014842;28;20033;-70
2023/06/28 02:48:44;;;;;;;16.42;8.20;;;;;;;;;;5014389;28;20386;-70
2023/06/28 02:51:09;;;;;;;19.25;8.13;;;;;;;;;;5014354;28;20500;-70
2023/06/28 02:53:35;;;;;;;19.25;9.18;;;;;;;;;;5014037;28;20033;-70
2023/06/28 02:56:00;;;;;;;19.20;8.20;;;;;;;;;;5014542;28;20359;-70
2023/06/28 02:58:25;;;;;;;17.55;8.40;;;;;;;;;;5012605;28;20525;-70
2023/06/28 03:00:50;;;;;;;14.95;8.35;;;;;;;;;;5013718;28;20045;-70
2023/06/28 03:03:17;;;;;;;14.20;7.78;;;;;;;;;;5013875;28;20038;-70
2023/06/28 03:05:42;;;;;;;15.05;7.63;;;;;;;;;;5013430;28;20049;-70
2023/06/28 03:08:08;;;;;;;18.55;8.55;;;;;;;;;;5006559;28;20038;-70
2023/06/28 03:10:33;;;;;;;14.13;7.70;;;;;;;;;;5014302;28;20064;-70
2023/06/28 03:12:58;;;;;;;15.45;8.20;;;;;;;;;;5013929;28;20038;-70
2023/06/28 03:15:25;;;;;;;16.13;7.82;;;;;;;;;;5014375;28;20084;-70
2023/06/28 03:17:50;;;;;;;14.38;7.55;;;;;;;;;;5013591;28;20362;-70
2023/06/28 03:20:15;;;;;;;15.88;8.00;;;;;;;;;;5013835;28;20502;-70
2023/06/28 03:22:41;;;;;;;19.05;8.02;;;;;;;;;;5012970;28;20038;-70
2023/06/28 03:25:07;;;;;;;14.07;8.00;;;;;;;;;;5014032;28;20026;-70
2023/06/28 03:27:32;;;;;;;14.55;7.95;;;;;;;;;;5011215;28;20053;-70
2023/06/28 03:29:57;;;;;;;16.55;8.98;;;;;;;;;;5013940;28;20041;-70
2023/06/28 03:32:23;;;;;;;13.95;8.40;;;;;;;;;;5013588;28;20046;-70
2023/06/28 03:34:48;;;;;;;23.10;9.45;;;;;;;;;;5014090;28;20038;-70
2023/06/28 03:37:16;;;;;;;12.77;7.35;;;;;;;;;;5012392;28;20060;-70
2023/06/28 03:39:41;;;;;;;14.75;7.55;;;;;;;;;;5013837;28;20034;-69
2023/06/28 03:42:07;;;;;;;16.77;8.73;;;;;;;;;;5012107;28;20045;-70
2023/06/28 03:44:32;;;;;;;15.85;7.90;;;;;;;;;;5013327;28;20046;-70
2023/06/28 03:46:58;;;;;;;14.25;8.30;;;;;;;;;;5013526;28;20103;-70
2023/06/28 03:49:23;;;;;;;16.27;8.45;;;;;;;;;;5013353;28;20045;-70
2023/06/28 03:51:48;;;;;;;20.52;8.55;;;;;;;;;;5013590;28;20062;-69
2023/06/28 03:54:14;;;;;;;14.48;8.20;;;;;;;;;;5013346;28;20034;-70
2023/06/28 03:56:39;;;;;;;16.95;7.32;;;;;;;;;;5013238;28;20116;-70
2023/06/28 03:59:04;;;;;;;15.05;7.63;;;;;;;;;;5012711;28;20046;-70
2023/06/28 04:01:30;;;;;;;13.88;8.18;;;;;;;;;;5011982;28;20461;-70
2023/06/28 04:03:55;;;;;;;13.43;7.75;;;;;;;;;;5002276;28;20530;-70
2023/06/28 04:06:20;;;;;;;16.10;7.68;;;;;;;;;;5013617;28;20030;-70
2023/06/28 04:08:46;;;;;;;14.50;7.50;;;;;;;;;;5012496;28;20458;-70
2023/06/28 04:11:12;;;;;;;15.18;7.75;;;;;;;;;;5012390;28;20040;-70
2023/06/28 04:13:38;;;;;;;15.63;7.57;;;;;;;;;;5011667;28;20037;-70
2023/06/28 04:16:03;;;;;;;10.90;7.20;;;;;;;;;;5013510;28;20061;-70
2023/06/28 04:18:29;;;;;;;11.95;7.35;;;;;;;;;;5017345;28;20046;-70
2023/06/28 04:20:55;;;;;;;14.93;8.18;;;;;;;;;;5015705;28;20045;-70
2023/06/28 04:23:20;;;;;;;13.50;7.35;;;;;;;;;;5012493;28;20042;-70
2023/06/28 04:25:46;;;;;;;13.68;6.78;;;;;;;;;;5017404;28;20379;-70
2023/06/28 04:28:12;;;;;;;13.43;7.15;;;;;;;;;;5016956;28;20044;-70
2023/06/28 04:30:38;;;;;;;12.45;6.65;;;;;;;;;;5017019;28;20030;-70
2023/06/28 04:33:04;;;;;;;15.25;5.95;;;;;;;;;;5016834;28;20500;-70
2023/06/28 04:35:34;;;;;;;10.45;5.28;;;;;;;;;;5016139;28;20034;-70
2023/06/28 04:38:03;;;;;;;9.68;5.25;;;;;;;;;;5015432;28;20032;-70
2023/06/28 04:40:29;;;;;;;11.98;5.65;;;;;;;;;;5016811;28;20065;-70
2023/06/28 04:42:54;;;;;;;9.30;5.20;;;;;;;;;;5016878;28;20048;-70
2023/06/28 04:45:19;;;;;;;9.35;4.82;;;;;;;;;;5016890;28;20037;-70
2023/06/28 04:47:45;;;;;;;10.55;5.28;;;;;;;;;;5016809;28;20033;-70
2023/06/28 04:50:10;;;;;;;12.82;4.78;;;;;;;;;;5009074;28;20037;-70
2023/06/28 04:52:35;;;;;;;8.02;4.20;;;;;;;;;;5016533;28;20389;-70
2023/06/28 04:55:01;;;;;;;9.75;4.60;;;;;;;;;;5016849;28;20046;-70
2023/06/28 04:57:26;;;;;;;12.32;4.40;;;;;;;;;;5016418;28;20030;-70
2023/06/28 04:59:51;;;;;;;8.40;4.07;;;;;;;;;;5016411;28;20041;-70
2023/06/28 05:02:17;;;;;;;7.93;3.85;;;;;;;;;;5016005;28;20034;-70
2023/06/28 05:04:43;;;;;;;6.20;3.25;;;;;;;;;;5016314;28;20084;-70
2023/06/28 05:07:09;;;;;;;7.03;3.70;;;;;;;;;;5016179;28;20069;-70
2023/06/28 05:09:35;;;;;;;6.63;3.55;;;;;;;;;;5016442;28;20398;-70
2023/06/28 05:12:02;;;;;;;6.43;3.75;;;;;;;;;;5016056;28;20482;-70
2023/06/28 05:14:29;;;;;;;5.75;3.92;;;;;;;;;;5014720;28;20497;-70
2023/06/28 05:16:54;;;;;;;6.50;3.72;;;;;;;;;;5004952;28;20085;-70
2023/06/28 05:19:23;;;;;;;6.85;3.85;;;;;;;;;;5016192;28;20069;-70
2023/06/28 05:21:48;;;;;;;6.30;3.50;;;;;;;;;;5014833;28;20097;-70
2023/06/28 05:24:15;;;;;;;6.70;3.50;;;;;;;;;;5016088;28;20172;-70
2023/06/28 05:26:41;;;;;;;5.18;3.30;;;;;;;;;;5015055;28;20049;-70
2023/06/28 05:29:06;;;;;;;5.80;3.47;;;;;;;;;;5014893;28;20033;-70
2023/06/28 05:31:31;;;;;;;6.78;3.20;;;;;;;;;;5009866;28;20041;-70
2023/06/28 05:33:57;;;;;;;5.50;3.20;;;;;;;;;;5016006;28;20381;-70
2023/06/28 05:36:22;;;;;;;4.13;2.63;;;;;;;;;;5016088;28;20045;-70
2023/06/28 05:38:48;;;;;;;6.72;3.42;;;;;;;;;;5015930;28;20066;-70
2023/06/28 05:41:15;;;;;;;5.38;2.80;;;;;;;;;;5016007;28;20042;-70
2023/06/28 05:43:45;;;;;;;6.43;3.38;;;;;;;;;;5014502;28;20048;-70
2023/06/28 05:46:11;;;;;;;7.05;3.60;;;;;;;;;;5014608;28;20081;-70
2023/06/28 05:48:36;;;;;;;6.28;3.30;;;;;;;;;;5015649;28;20070;-70
2023/06/28 05:51:02;;;;;;;6.00;3.58;;;;;;;;;;5015907;28;20033;-70
2023/06/28 05:53:29;;;;;;;6.85;3.97;;;;;;;;;;5013398;28;20462;-70
2023/06/28 05:55:54;;;;;;;6.78;3.83;;;;;;;;;;5014700;28;20394;-70
2023/06/28 05:58:20;;;;;;;5.90;3.30;;;;;;;;;;5015329;28;20058;-70
2023/06/28 06:00:45;;;;;;;9.65;4.22;;;;;;;;;;5015200;28;20045;-70
2023/06/28 06:03:10;;;;;;;5.70;3.63;;;;;;;;;;5015126;28;20033;-69
2023/06/28 06:05:39;;;;;;;8.05;4.03;;;;;;;;;;5014615;28;20030;-70
2023/06/28 06:08:05;;;;;;;7.63;4.13;;;;;;;;;;5014936;28;20037;-70
2023/06/28 06:10:30;;;;;;;7.97;4.10;;;;;;;;;;5015087;28;20052;-70
2023/06/28 06:12:56;;;;;;;6.68;4.47;;;;;;;;;;5013642;28;20163;-70
2023/06/28 06:15:21;;;;;;;8.40;4.68;;;;;;;;;;5015466;28;20038;-70
2023/06/28 06:17:47;;;;;;;8.52;4.15;;;;;;;;;;5014753;28;20444;-70
2023/06/28 06:20:15;;;;;;;7.35;4.38;;;;;;;;;;5015264;28;20033;-70
2023/06/28 06:22:41;;;;;;;7.57;4.55;;;;;;;;;;5010361;28;20074;-70
2023/06/28 06:25:07;;;;;;;11.75;4.82;;;;;;;;;;5015054;28;20084;-70
2023/06/28 06:27:32;;;;;;;6.70;4.03;;;;;;;;;;5014287;28;20500;-70
2023/06/28 06:29:57;;;;;;;6.63;4.32;;;;;;;;;;5008917;28;20038;-70
2023/06/28 06:32:23;;;;;;;6.78;4.22;;;;;;;;;;5015107;28;20037;-70
2023/06/28 06:34:48;;;;;;;7.28;4.50;;;;;;;;;;5015558;28;20026;-70
2023/06/28 06:37:13;;;;;;;6.70;4.60;;;;;;;;;;5015603;28;20516;-70
2023/06/28 06:39:39;;;;;;;7.85;4.78;;;;;;;;;;5014398;28;20041;-70
2023/06/28 06:42:05;;;;;;;8.85;5.22;;;;;;;;;;5013683;28;20089;-70
2023/06/28 06:44:31;;;;;;;6.65;4.60;;;;;;;;;;5013517;28;20049;-70
2023/06/28 06:46:56;;;;;;;8.23;4.63;;;;;;;;;;5014673;28;20038;-70
2023/06/28 06:49:21;;;;;;;6.88;4.60;;;;;;;;;;5014433;28;20470;-70
2023/06/28 06:51:47;;;;;;;6.90;4.15;;;;;;;;;;5014558;28;20046;-69
2023/06/28 06:54:12;;;;;;;6.32;3.90;;;;;;;;;;5012071;28;20545;-70
2023/06/28 06:56:38;;;;;;;7.50;3.75;;;;;;;;;;5014527;28;20030;-70
2023/06/28 06:59:03;;;;;;;6.10;3.40;;;;;;;;;;5011956;28;20061;-70
2023/06/28 07:01:29;;;;;;;5.47;3.28;;;;;;;;;;5014232;28;20493;-70
2023/06/28 07:03:55;;;;;;;5.40;3.78;;;;;;;;;;5014433;28;20030;-70
2023/06/28 07:06:20;;;;;;;6.50;3.83;;;;;;;;;;5000167;28;20149;-70
2023/06/28 07:08:46;;;;;;;5.68;3.70;;;;;;;;;;5007506;28;20061;-70
2023/06/28 07:11:12;;;;;;;7.75;3.72;;;;;;;;;;5013553;28;20034;-70
2023/06/28 07:13:38;;;;;;;6.47;3.25;;;;;;;;;;5014124;28;20049;-70
2023/06/28 07:16:03;;;;;;;6.93;3.42;;;;;;;;;;5013846;28;20620;-70
2023/06/28 07:18:29;;;;;;;5.95;3.40;;;;;;;;;;5012338;28;20156;-70
2023/06/28 07:20:54;;;;;;;5.70;3.28;;;;;;;;;;5013932;28;20042;-70
2023/06/28 07:23:20;;;;;;;4.90;2.95;;;;;;;;;;5012822;28;20080;-69
2023/06/28 07:25:45;;;;;;;5.03;3.17;;;;;;;;;;5013041;28;20252;-70
2023/06/28 07:28:11;;;;;;;5.13;2.63;;;;;;;;;;5012497;28;20418;-70
2023/06/28 07:31:09;;;;;;;4.63;2.85;;;;;;;;;;5012531;28;20030;-70
2023/06/28 07:33:34;;;;;;;3.95;2.58;;;;;;;;;;5005697;28;20568;-70
2023/06/28 07:36:00;;;;;;;4.47;2.97;;;;;;;;;;5012942;28;20057;-70
2023/06/28 07:38:25;;;;;;;5.40;2.60;;;;;;;;;;5013251;28;20116;-70
2023/06/28 07:40:51;;;;;;;3.80;2.38;;;;;;;;;;5007975;28;20149;-70
2023/06/28 07:43:17;;;;;;;3.75;2.72;;;;;;;;;;5013516;28;20124;-70
2023/06/28 07:45:43;;;;;;;5.25;2.50;;;;;;;;;;5013688;28;20026;-70
2023/06/28 07:48:08;;;;;;;4.47;2.10;;;;;;;;;;5012344;28;20038;-69
2023/06/28 07:50:34;;;;;;;7.45;2.15;;;;;;;;;;5012608;28;20049;-70
2023/06/28 07:53:00;;;;;;;4.28;2.30;;;;;;;;;;5011529;28;20041;-70
2023/06/28 07:55:25;;;;;;;5.20;2.60;;;;;;;;;;5005224;28;20057;-70
2023/06/28 07:57:50;;;;;;;3.65;2.13;;;;;;;;;;5012970;28;20054;-70
2023/06/28 08:00:16;;;;;;;4.07;2.50;;;;;;;;;;5013506;28;20032;-70
2023/06/28 08:02:42;;;;;;;6.13;2.40;;;;;;;;;;5013193;28;20038;-70
2023/06/28 08:05:07;;;;;;;6.07;2.65;;;;;;;;;;5013198;28;20537;-70
2023/06/28 08:07:34;;;;;;;4.63;2.50;;;;;;;;;;5013598;28;20458;-70
2023/06/28 08:09:59;;;;;;;5.05;3.03;;;;;;;;;;5013322;28;20042;-70
2023/06/28 08:12:25;;;;;;;4.63;2.67;;;;;;;;;;5013455;28;20056;-70
2023/06/28 08:14:50;;;;;;;5.13;2.95;;;;;;;;;;5005890;28;20046;-70
2023/06/28 08:17:15;;;;;;;4.72;2.83;;;;;;;;;;5011145;28;20073;-70
2023/06/28 08:19:41;;;;;;;5.15;2.85;;;;;;;;;;5013410;28;20034;-70
2023/06/28 08:22:06;;;;;;;4.88;3.25;;;;;;;;;;5011939;28;20037;-70
2023/06/28 08:24:31;;;;;;;5.47;3.50;;;;;;;;;;5012300;28;20041;-70
2023/06/28 08:26:57;;;;;;;6.40;3.88;;;;;;;;;;4993858;28;20045;-70
2023/06/28 08:29:22;;;;;;;6.07;3.70;;;;;;;;;;5007710;28;20041;-70
2023/06/28 08:31:48;;;;;;;6.30;3.72;;;;;;;;;;5008684;28;20612;-70
2023/06/28 08:34:15;;;;;;;5.38;3.38;;;;;;;;;;5009605;28;20053;-70
2023/06/28 08:36:41;;;;;;;6.68;3.92;;;;;;;;;;5009332;28;20034;-70
2023/06/28 08:39:06;;;;;;;5.40;3.28;;;;;;;;;;5009629;28;20041;-70
2023/06/28 08:41:33;;;;;;;6.13;3.63;;;;;;;;;;5008929;28;20038;-70
2023/06/28 08:44:00;;;;;;;7.38;3.40;;;;;;;;;;5009833;28;20072;-70
2023/06/28 08:46:26;;;;;;;5.78;3.08;;;;;;;;;;5008417;28;20034;-70
2023/06/28 08:48:52;;;;;;;5.05;3.13;;;;;;;;;;5008334;28;20054;-70
2023/06/28 08:51:18;;;;;;;5.50;3.50;;;;;;;;;;5007812;28;20033;-70
2023/06/28 08:53:46;;;;;;;3.97;2.45;;;;;;;;;;5009461;28;20050;-70
2023/06/28 08:56:12;;;;;;;4.65;2.60;;;;;;;;;;5007983;28;20038;-70
2023/06/28 08:58:37;;;;;;;4.10;2.00;;;;;;;;;;5009092;28;20506;-70
2023/06/28 09:01:03;;;;;;;4.15;2.40;;;;;;;;;;5003887;28;20390;-70
2023/06/28 09:03:30;;;;;;;4.78;2.25;;;;;;;;;;5003324;28;20140;-70
2023/06/28 09:05:56;;;;;;;4.45;1.90;;;;;;;;;;5006274;28;20034;-70
2023/06/28 09:08:21;;;;;;;3.55;1.75;;;;;;;;;;5009819;28;20070;-70
2023/06/28 09:10:47;;;;;;;4.55;2.20;;;;;;;;;;5009592;28;20509;-70
2023/06/28 09:13:19;;;;;;;3.95;2.40;;;;;;;;;;5011883;28;20038;-70
2023/06/28 09:15:44;;;;;;;4.15;2.10;;;;;;;;;;5010435;28;20038;-70
2023/06/28 09:18:09;;;;;;;3.92;2.30;;;;;;;;;;5010603;28;20053;-70
2023/06/28 09:20:35;;;;;;;4.72;2.72;;;;;;;;;;5010972;28;20065;-70
2023/06/28 09:23:00;;;;;;;6.75;2.70;;;;;;;;;;5011535;28;20133;-70
2023/06/28 09:25:27;;;;;;;3.97;2.60;;;;;;;;;;5012048;28;20037;-70
2023/06/28 09:27:55;;;;;;;5.53;2.67;;;;;;;;;;4999770;28;20049;-70
2023/06/28 09:30:20;;;;;;;6.28;2.42;;;;;;;;;;5012075;28;20045;-70
2023/06/28 09:32:50;;;;;;;3.92;2.65;;;;;;;;;;5010473;28;20049;-70
2023/06/28 09:35:19;;;;;;;7.85;2.90;;;;;;;;;;5011860;28;20030;-70
2023/06/28 09:37:55;;;;;;;4.32;2.90;;;;;;;;;;5011638;28;20038;-70
2023/06/28 09:40:21;;;;;;;4.20;2.60;;;;;;;;;;5009185;28;20821;-70
2023/06/28 09:42:47;;;;;;;5.43;2.60;;;;;;;;;;5011554;28;20045;-70
2023/06/28 09:45:27;;;;;;;3.58;2.10;;;;;;;;;;5012868;28;20105;-70
2023/06/28 09:47:59;;;;;;;4.00;1.98;;;;;;;;;;5010326;28;20038;-70
2023/06/28 09:50:41;;;;;;;3.13;1.83;;;;;;;;;;5010370;28;20033;-70
2023/06/28 09:53:10;;;;;;;5.13;1.90;;;;;;;;;;5012075;28;20073;-70
2023/06/28 09:55:44;;;;;;;2.67;1.67;;;;;;;;;;4999614;28;20486;-70
2023/06/28 09:58:14;;;;;;;2.80;1.77;;;;;;;;;;5011684;28;20058;-70
2023/06/28 10:00:41;;;;;;;4.15;2.22;;;;;;;;;;4998684;28;20076;-70
2023/06/28 10:03:10;;;;;;;5.57;1.95;;;;;;;;;;5011123;28;20032;-70
2023/06/28 10:05:38;;;;;;;5.30;2.38;;;;;;;;;;5009999;28;20049;-69
2023/06/28 10:08:07;;;;;;;6.18;2.33;;;;;;;;;;5011355;28;20030;-71
2023/06/28 10:10:34;;;;;;;4.53;2.33;;;;;;;;;;5010690;28;20055;-70
2023/06/28 10:12:59;;;;;;;4.43;2.50;;;;;;;;;;5011074;28;20562;-70
2023/06/28 10:15:25;;;;;;;4.07;2.40;;;;;;;;;;5002037;28;20038;-70
2023/06/28 10:17:53;;;;;;;5.35;2.08;;;;;;;;;;5008040;28;20478;-70
2023/06/28 10:20:18;;;;;;;6.50;2.60;;;;;;;;;;5005824;28;20042;-70
2023/06/28 10:22:45;;;;;;;5.82;2.63;;;;;;;;;;5006945;28;20045;-70
2023/06/28 10:25:11;;;;;;;4.50;2.67;;;;;;;;;;5010425;28;20042;-70
2023/06/28 10:27:36;;;;;;;5.38;2.38;;;;;;;;;;4992774;28;20079;-70
2023/06/28 10:30:03;;;;;;;3.50;2.25;;;;;;;;;;5006690;28;20462;-70
2023/06/28 10:32:28;;;;;;;4.22;1.92;;;;;;;;;;5010520;28;20049;-70
2023/06/28 10:34:55;;;;;;;4.32;2.10;;;;;;;;;;5010630;28;20049;-70
2023/06/28 10:37:21;;;;;;;4.07;2.17;;;;;;;;;;5002392;28;20045;-70
2023/06/28 10:39:47;;;;;;;5.53;2.33;;;;;;;;;;5009215;28;20100;-70
2023/06/28 10:42:12;;;;;;;4.25;2.33;;;;;;;;;;5008034;28;20048;-70
2023/06/28 10:44:57;;;;;;;6.07;3.03;;;;;;;;;;5010164;28;20048;-70
2023/06/28 10:47:23;;;;;;;6.55;3.00;;;;;;;;;;5007054;28;20045;-70
2023/06/28 10:50:11;;;;;;;7.13;3.55;;;;;;;;;;5007821;28;20650;-70
2023/06/28 10:52:47;;;;;;;7.18;3.63;;;;;;;;;;5008836;28;20052;-70
2023/06/28 10:55:13;;;;;;;9.38;3.50;;;;;;;;;;5010421;28;20405;-70
2023/06/28 10:57:39;;;;;;;7.35;3.47;;;;;;;;;;5009074;28;20041;-70
2023/06/28 11:00:11;;;;;;;10.57;4.18;;;;;;;;;;5010212;28;20083;-70
2023/06/28 11:02:54;;;;;;;8.93;4.07;;;;;;;;;;5008143;28;20074;-70
2023/06/28 11:05:44;;;;;;;8.43;4.07;;;;;;;;;;5011266;28;20393;-69
2023/06/28 11:08:14;;;;;;;7.10;4.10;;;;;;;;;;5001508;28;20095;-70
2023/06/28 11:11:00;;;;;;;9.35;4.70;;;;;;;;;;5008448;28;20128;-70
2023/06/28 11:13:48;;;;;;;10.45;5.10;;;;;;;;;;5004652;28;20371;-70
2023/06/28 11:16:21;;;;;;;10.80;4.60;;;;;;;;;;5008980;28;20490;-69
2023/06/28 11:18:48;;;;;;;9.23;5.10;;;;;;;;;;5008883;28;20026;-70
2023/06/28 11:21:15;;;;;;;9.43;4.40;;;;;;;;;;5008040;28;20137;-70
2023/06/28 11:23:42;;;;;;;8.50;4.70;;;;;;;;;;5008062;28;20041;-69
2023/06/28 11:26:12;;;;;;;11.77;5.50;;;;;;;;;;5008791;28;20545;-70
2023/06/28 11:28:46;;;;;;;11.95;5.32;;;;;;;;;;5009590;28;20038;-70
2023/06/28 11:31:20;;;;;;;8.65;4.53;;;;;;;;;;5009101;28;20359;-70
2023/06/28 11:33:47;;;;;;;8.20;4.50;;;;;;;;;;5009092;28;20500;-70
2023/06/28 11:36:12;;;;;;;10.63;4.88;;;;;;;;;;5009142;28;20053;-70
2023/06/28 11:38:42;;;;;;;7.40;4.18;;;;;;;;;;5008362;28;20077;-70
2023/06/28 11:41:07;;;;;;;8.10;3.95;;;;;;;;;;5008587;28;20468;-69
2023/06/28 11:43:33;;;;;;;8.90;4.55;;;;;;;;;;5002131;28;20041;-70
2023/06/28 11:45:59;;;;;;;9.30;4.30;;;;;;;;;;5001738;28;20944;-70
2023/06/28 11:48:24;;;;;;;7.43;4.40;;;;;;;;;;5009740;28;20034;-70
2023/06/28 11:51:04;;;;;;;9.40;4.00;;;;;;;;;;5005381;28;20088;-70
2023/06/28 11:53:31;;;;;;;8.27;3.97;;;;;;;;;;4980301;28;20050;-69
2023/06/28 11:55:57;;;;;;;7.05;3.85;;;;;;;;;;4983123;28;20038;-69
2023/06/28 11:58:40;;;;;;;9.10;3.22;;;;;;;;;;5005749;28;20127;-70
2023/06/28 12:01:19;;;;;;;4.40;2.53;;;;;;;;;;4998347;28;20037;-70
2023/06/28 12:03:44;;;;;;;4.43;2.40;;;;;;;;;;5006986;28;20060;-70
2023/06/28 12:06:10;;;;;;;5.15;2.20;;;;;;;;;;5006489;28;20029;-70
2023/06/28 12:08:37;;;;;;;4.50;1.73;;;;;;;;;;5008542;28;20052;-69
2023/06/28 12:11:11;;;;;;;4.35;1.70;;;;;;;;;;5001558;28;20030;-70
2023/06/28 12:13:37;;;;;;;3.55;1.85;;;;;;;;;;5004012;28;20061;-70
2023/06/28 12:16:15;;;;;;;5.85;2.25;;;;;;;;;;4999372;28;20472;-70
2023/06/28 12:19:00;;;;;;;4.47;2.20;;;;;;;;;;5001383;28;20049;-70
2023/06/28 12:21:30;;;;;;;7.22;2.78;;;;;;;;;;5006347;28;20367;-70
2023/06/28 12:24:21;;;;;;;8.60;3.08;;;;;;;;;;5002416;28;20960;-70
2023/06/28 12:26:51;;;;;;;5.28;2.75;;;;;;;;;;5008400;28;20018;-70
2023/06/28 12:29:21;;;;;;;6.47;2.90;;;;;;;;;;5008879;28;20046;-70
2023/06/28 12:31:48;;;;;;;5.07;2.60;;;;;;;;;;5008297;28;20026;-70
2023/06/28 12:34:26;;;;;;;6.07;2.50;;;;;;;;;;5008173;28;20034;-70
2023/06/28 12:36:56;;;;;;;4.15;2.22;;;;;;;;;;4988031;28;20084;-70
2023/06/28 12:39:22;;;;;;;7.18;3.38;;;;;;;;;;5010358;28;20050;-70
2023/06/28 12:42:05;;;;;;;5.10;2.63;;;;;;;;;;5009894;28;20524;-70
2023/06/28 12:44:32;;;;;;;9.57;2.87;;;;;;;;;;4999598;28;20046;-70
2023/06/28 12:46:58;;;;;;;5.15;3.17;;;;;;;;;;5006889;28;20436;-70
2023/06/28 12:49:37;;;;;;;7.55;3.25;;;;;;;;;;5009429;28;20045;-70
2023/06/28 12:52:03;;;;;;;7.00;3.35;;;;;;;;;;5005131;28;20498;-70
2023/06/28 12:54:28;;;;;;;7.85;3.28;;;;;;;;;;5011411;28;20064;-69
2023/06/28 12:56:54;;;;;;;6.60;3.50;;;;;;;;;;5011232;28;20037;-70
2023/06/28 12:59:19;;;;;;;6.40;3.30;;;;;;;;;;5010745;28;20467;-70
2023/06/28 13:01:44;;;;;;;7.05;3.97;;;;;;;;;;5010374;28;20034;-70
2023/06/28 13:04:11;;;;;;;8.13;4.15;;;;;;;;;;5011152;28;20048;-70
2023/06/28 13:06:36;;;;;;;10.05;3.75;;;;;;;;;;5010497;28;20492;-70
2023/06/28 13:09:02;;;;;;;8.20;3.97;;;;;;;;;;5009659;28;20034;-70
2023/06/28 13:11:31;;;;;;;7.78;4.28;;;;;;;;;;5009831;28;20073;-70
2023/06/28 13:13:56;;;;;;;7.53;4.00;;;;;;;;;;5010026;28;20042;-70
2023/06/28 13:16:22;;;;;;;5.97;3.70;;;;;;;;;;5010397;28;20052;-70
2023/06/28 13:18:47;;;;;;;7.38;4.20;;;;;;;;;;5010661;28;20484;-69
2023/06/28 13:21:12;;;;;;;8.52;4.30;;;;;;;;;;5011321;28;20537;-70
2023/06/28 13:23:38;;;;;;;9.73;4.30;;;;;;;;;;5010680;28;20516;-69
2023/06/28 13:26:04;;;;;;;10.95;4.20;;;;;;;;;;5010277;28;20033;-70
2023/06/28 13:28:30;;;;;;;7.97;4.43;;;;;;;;;;5010149;28;20041;-70
2023/06/28 13:30:55;;;;;;;7.22;4.28;;;;;;;;;;5010427;28;20025;-70
2023/06/28 13:33:20;;;;;;;8.18;4.30;;;;;;;;;;5010859;28;20052;-70
2023/06/28 13:35:45;;;;;;;7.47;4.13;;;;;;;;;;5009301;28;20042;-70
2023/06/28 13:38:11;;;;;;;6.88;4.32;;;;;;;;;;5009580;28;20037;-70
2023/06/28 13:40:37;;;;;;;8.77;4.25;;;;;;;;;;5008291;28;20041;-69
2023/06/28 13:43:04;;;;;;;7.95;4.10;;;;;;;;;;5009822;28;20125;-70
2023/06/28 13:45:30;;;;;;;8.98;4.60;;;;;;;;;;5009663;28;20076;-70
2023/06/28 13:47:55;;;;;;;8.60;4.25;;;;;;;;;;5010299;28;20462;-70
2023/06/28 13:50:21;;;;;;;10.27;4.85;;;;;;;;;;5008860;28;20069;-70
2023/06/28 13:52:46;;;;;;;8.75;5.05;;;;;;;;;;5009385;28;20049;-69
2023/06/28 13:55:12;;;;;;;7.40;4.60;;;;;;;;;;5008756;28;20069;-69
2023/06/28 13:57:37;;;;;;;7.95;4.47;;;;;;;;;;5009944;28;20034;-70
2023/06/28 14:00:04;;;;;;;7.57;4.95;;;;;;;;;;5009670;28;20061;-69
2023/06/28 14:02:30;;;;;;;8.77;4.43;;;;;;;;;;5009654;28;20060;-70
2023/06/28 14:04:55;;;;;;;9.98;4.57;;;;;;;;;;5009200;28;20478;-69
2023/06/28 14:07:21;;;;;;;5.97;3.70;;;;;;;;;;5008178;28;20049;-69
2023/06/28 14:09:47;;;;;;;8.52;3.85;;;;;;;;;;5007225;28;20042;-69
2023/06/28 14:12:13;;;;;;;5.72;3.75;;;;;;;;;;5008968;28;20455;-69
2023/06/28 14:14:39;;;;;;;9.88;4.78;;;;;;;;;;5010173;28;20034;-69
2023/06/28 14:17:05;;;;;;;11.60;5.10;;;;;;;;;;5009748;28;20081;-69
2023/06/28 14:19:30;;;;;;;11.63;4.43;;;;;;;;;;5008903;28;20494;-69
2023/06/28 14:21:56;;;;;;;8.05;4.05;;;;;;;;;;5009781;28;20486;-70
2023/06/28 14:24:21;;;;;;;6.85;3.80;;;;;;;;;;5009409;28;20068;-70
2023/06/28 14:26:48;;;;;;;7.65;4.22;;;;;;;;;;5009093;28;20044;-70
2023/06/28 14:29:14;;;;;;;6.78;4.22;;;;;;;;;;5008896;28;20038;-70
2023/06/28 14:31:39;;;;;;;7.75;3.92;;;;;;;;;;5008699;28;20049;-70
2023/06/28 14:34:04;;;;;;;6.63;3.55;;;;;;;;;;5009866;28;20042;-69
2023/06/28 14:36:30;;;;;;;8.45;3.67;;;;;;;;;;5009353;28;20032;-70